sensor_id;sensor_type;location;lat;lon;timestamp;P1;durP1;ratioP1;P2;durP2;ratioP2
36651;SDS011;53334;51.976;20.144;2022-12-20T00:01:35;9.57;;;7.43;;
36651;SDS011;53334;51.976;20.144;2022-12-20T00:04:08;10.23;;;6.70;;
36651;SDS011;53334;51.976;20.144;2022-12-20T00:06:43;12.15;;;7.47;;
36651;SDS011;53334;51.976;20.144;2022-12-20T00:09:16;9.52;;;7.15;;
36651;SDS011;53334;51.976;20.144;2022-12-20T00:11:50;10.35;;;7.65;;
36651;SDS011;53334;51.976;20.144;2022-12-20T00:14:24;9.60;;;7.10;;
36651;SDS011;53334;51.976;20.144;2022-12-20T00:16:57;10.88;;;8.18;;
36651;SDS011;53334;51.976;20.144;2022-12-20T00:19:30;14.50;;;7.38;;
36651;SDS011;53334;51.976;20.144;2022-12-20T00:22:04;10.80;;;7.13;;
36651;SDS011;53334;51.976;20.144;2022-12-20T00:24:37;11.80;;;7.13;;
36651;SDS011;53334;51.976;20.144;2022-12-20T00:27:12;8.50;;;6.78;;
36651;SDS011;53334;51.976;20.144;2022-12-20T00:29:46;11.50;;;6.43;;
36651;SDS011;53334;51.976;20.144;2022-12-20T00:32:19;13.10;;;6.85;;
36651;SDS011;53334;51.976;20.144;2022-12-20T00:34:53;9.02;;;6.18;;
36651;SDS011;53334;51.976;20.144;2022-12-20T00:37:26;8.40;;;6.85;;
36651;SDS011;53334;51.976;20.144;2022-12-20T00:39:59;9.30;;;6.38;;
36651;SDS011;53334;51.976;20.144;2022-12-20T00:42:36;6.72;;;5.63;;
36651;SDS011;53334;51.976;20.144;2022-12-20T00:45:09;7.80;;;6.00;;
36651;SDS011;53334;51.976;20.144;2022-12-20T00:47:42;8.38;;;6.40;;
36651;SDS011;53334;51.976;20.144;2022-12-20T00:50:15;7.32;;;5.97;;
36651;SDS011;53334;51.976;20.144;2022-12-20T00:52:49;11.05;;;6.18;;
36651;SDS011;53334;51.976;20.144;2022-12-20T00:55:22;7.00;;;5.22;;
36651;SDS011;53334;51.976;20.144;2022-12-20T00:57:57;9.38;;;6.57;;
36651;SDS011;53334;51.976;20.144;2022-12-20T01:00:30;8.05;;;5.95;;
36651;SDS011;53334;51.976;20.144;2022-12-20T01:03:03;8.27;;;6.18;;
36651;SDS011;53334;51.976;20.144;2022-12-20T01:05:37;9.40;;;5.28;;
36651;SDS011;53334;51.976;20.144;2022-12-20T01:08:10;6.43;;;4.97;;
36651;SDS011;53334;51.976;20.144;2022-12-20T01:10:44;6.35;;;4.90;;
36651;SDS011;53334;51.976;20.144;2022-12-20T01:13:30;8.48;;;6.47;;
36651;SDS011;53334;51.976;20.144;2022-12-20T01:16:05;9.05;;;6.13;;
36651;SDS011;53334;51.976;20.144;2022-12-20T01:18:39;6.68;;;5.57;;
36651;SDS011;53334;51.976;20.144;2022-12-20T01:21:13;9.27;;;5.70;;
36651;SDS011;53334;51.976;20.144;2022-12-20T01:23:48;8.32;;;6.45;;
36651;SDS011;53334;51.976;20.144;2022-12-20T01:26:23;8.52;;;6.07;;
36651;SDS011;53334;51.976;20.144;2022-12-20T01:29:00;6.70;;;5.40;;
36651;SDS011;53334;51.976;20.144;2022-12-20T01:31:34;6.93;;;5.53;;
36651;SDS011;53334;51.976;20.144;2022-12-20T01:34:08;9.20;;;5.10;;
36651;SDS011;53334;51.976;20.144;2022-12-20T01:36:41;7.28;;;5.95;;
36651;SDS011;53334;51.976;20.144;2022-12-20T01:39:18;8.85;;;5.25;;
36651;SDS011;53334;51.976;20.144;2022-12-20T01:41:51;6.57;;;5.13;;
36651;SDS011;53334;51.976;20.144;2022-12-20T01:47:28;6.38;;;4.88;;
36651;SDS011;53334;51.976;20.144;2022-12-20T01:50:06;9.45;;;5.70;;
36651;SDS011;53334;51.976;20.144;2022-12-20T01:52:41;6.32;;;5.40;;
36651;SDS011;53334;51.976;20.144;2022-12-20T01:55:17;7.35;;;5.28;;
36651;SDS011;53334;51.976;20.144;2022-12-20T01:57:54;6.60;;;5.03;;
36651;SDS011;53334;51.976;20.144;2022-12-20T02:00:32;17.80;;;6.45;;
36651;SDS011;53334;51.976;20.144;2022-12-20T02:03:06;8.10;;;5.53;;
36651;SDS011;53334;51.976;20.144;2022-12-20T02:05:41;7.18;;;5.13;;
36651;SDS011;53334;51.976;20.144;2022-12-20T02:08:17;6.53;;;5.43;;
36651;SDS011;53334;51.976;20.144;2022-12-20T02:10:58;8.95;;;6.00;;
36651;SDS011;53334;51.976;20.144;2022-12-20T02:13:56;9.10;;;6.10;;
36651;SDS011;53334;51.976;20.144;2022-12-20T02:16:42;6.30;;;5.70;;
36651;SDS011;53334;51.976;20.144;2022-12-20T02:19:28;7.25;;;5.72;;
36651;SDS011;53334;51.976;20.144;2022-12-20T02:22:26;6.43;;;5.23;;
36651;SDS011;53334;51.976;20.144;2022-12-20T02:25:17;5.35;;;4.80;;
36651;SDS011;53334;51.976;20.144;2022-12-20T02:28:25;6.28;;;5.47;;
36651;SDS011;53334;51.976;20.144;2022-12-20T02:31:14;6.43;;;5.18;;
36651;SDS011;53334;51.976;20.144;2022-12-20T02:33:53;6.25;;;5.57;;
36651;SDS011;53334;51.976;20.144;2022-12-20T02:36:28;6.32;;;4.95;;
36651;SDS011;53334;51.976;20.144;2022-12-20T02:39:01;4.90;;;4.40;;
36651;SDS011;53334;51.976;20.144;2022-12-20T02:41:35;6.90;;;5.38;;
36651;SDS011;53334;51.976;20.144;2022-12-20T02:44:14;6.90;;;5.38;;
36651;SDS011;53334;51.976;20.144;2022-12-20T02:47:10;6.65;;;4.90;;
36651;SDS011;53334;51.976;20.144;2022-12-20T02:49:48;7.32;;;5.53;;
36651;SDS011;53334;51.976;20.144;2022-12-20T02:52:25;7.53;;;5.93;;
36651;SDS011;53334;51.976;20.144;2022-12-20T02:55:01;6.88;;;5.05;;
36651;SDS011;53334;51.976;20.144;2022-12-20T02:57:41;8.32;;;5.90;;
36651;SDS011;53334;51.976;20.144;2022-12-20T03:00:18;6.40;;;5.00;;
36651;SDS011;53334;51.976;20.144;2022-12-20T03:02:55;7.85;;;5.43;;
36651;SDS011;53334;51.976;20.144;2022-12-20T03:05:45;8.93;;;4.68;;
36651;SDS011;53334;51.976;20.144;2022-12-20T03:08:23;6.18;;;5.00;;
36651;SDS011;53334;51.976;20.144;2022-12-20T03:10:56;7.40;;;4.70;;
36651;SDS011;53334;51.976;20.144;2022-12-20T03:13:29;5.78;;;4.65;;
36651;SDS011;53334;51.976;20.144;2022-12-20T03:16:10;6.03;;;4.90;;
36651;SDS011;53334;51.976;20.144;2022-12-20T03:18:45;5.65;;;4.68;;
36651;SDS011;53334;51.976;20.144;2022-12-20T03:21:18;5.60;;;4.72;;
36651;SDS011;53334;51.976;20.144;2022-12-20T03:23:51;7.43;;;4.95;;
36651;SDS011;53334;51.976;20.144;2022-12-20T03:26:25;5.35;;;4.45;;
36651;SDS011;53334;51.976;20.144;2022-12-20T03:29:02;6.78;;;5.10;;
36651;SDS011;53334;51.976;20.144;2022-12-20T03:31:35;7.13;;;4.80;;
36651;SDS011;53334;51.976;20.144;2022-12-20T03:34:10;5.97;;;4.63;;
36651;SDS011;53334;51.976;20.144;2022-12-20T03:36:44;7.85;;;4.60;;
36651;SDS011;53334;51.976;20.144;2022-12-20T03:39:17;6.03;;;4.72;;
36651;SDS011;53334;51.976;20.144;2022-12-20T03:41:54;6.35;;;5.07;;
36651;SDS011;53334;51.976;20.144;2022-12-20T03:44:27;5.90;;;4.45;;
36651;SDS011;53334;51.976;20.144;2022-12-20T03:47:01;6.57;;;4.55;;
36651;SDS011;53334;51.976;20.144;2022-12-20T03:52:09;5.13;;;4.40;;
36651;SDS011;53334;51.976;20.144;2022-12-20T03:54:45;5.95;;;5.03;;
36651;SDS011;53334;51.976;20.144;2022-12-20T03:57:22;5.32;;;4.60;;
36651;SDS011;53334;51.976;20.144;2022-12-20T03:59:56;6.47;;;4.93;;
36651;SDS011;53334;51.976;20.144;2022-12-20T04:02:30;7.45;;;5.28;;
36651;SDS011;53334;51.976;20.144;2022-12-20T04:05:05;8.50;;;4.82;;
36651;SDS011;53334;51.976;20.144;2022-12-20T04:07:41;7.60;;;4.30;;
36651;SDS011;53334;51.976;20.144;2022-12-20T04:10:16;5.75;;;4.60;;
36651;SDS011;53334;51.976;20.144;2022-12-20T04:12:49;4.82;;;4.35;;
36651;SDS011;53334;51.976;20.144;2022-12-20T04:15:23;5.90;;;4.93;;
36651;SDS011;53334;51.976;20.144;2022-12-20T04:17:56;5.53;;;4.57;;
36651;SDS011;53334;51.976;20.144;2022-12-20T04:20:31;5.70;;;4.78;;
36651;SDS011;53334;51.976;20.144;2022-12-20T04:23:16;5.55;;;4.38;;
36651;SDS011;53334;51.976;20.144;2022-12-20T04:25:51;5.90;;;4.13;;
36651;SDS011;53334;51.976;20.144;2022-12-20T04:28:24;9.40;;;4.95;;
36651;SDS011;53334;51.976;20.144;2022-12-20T04:30:59;6.93;;;4.43;;
36651;SDS011;53334;51.976;20.144;2022-12-20T04:33:35;6.28;;;4.50;;
36651;SDS011;53334;51.976;20.144;2022-12-20T04:36:10;5.80;;;4.72;;
36651;SDS011;53334;51.976;20.144;2022-12-20T04:38:44;5.05;;;4.18;;
36651;SDS011;53334;51.976;20.144;2022-12-20T04:41:17;5.70;;;4.68;;
36651;SDS011;53334;51.976;20.144;2022-12-20T04:43:59;5.35;;;4.32;;
36651;SDS011;53334;51.976;20.144;2022-12-20T04:46:39;6.22;;;4.68;;
36651;SDS011;53334;51.976;20.144;2022-12-20T04:49:16;5.72;;;4.35;;
36651;SDS011;53334;51.976;20.144;2022-12-20T04:51:51;6.28;;;5.10;;
36651;SDS011;53334;51.976;20.144;2022-12-20T04:54:25;6.53;;;4.40;;
36651;SDS011;53334;51.976;20.144;2022-12-20T04:57:02;7.68;;;4.35;;
36651;SDS011;53334;51.976;20.144;2022-12-20T04:59:36;7.90;;;4.90;;
36651;SDS011;53334;51.976;20.144;2022-12-20T05:02:09;5.30;;;4.25;;
36651;SDS011;53334;51.976;20.144;2022-12-20T05:04:54;6.72;;;4.40;;
36651;SDS011;53334;51.976;20.144;2022-12-20T05:07:28;24.10;;;11.55;;
36651;SDS011;53334;51.976;20.144;2022-12-20T05:10:02;18.65;;;10.07;;
36651;SDS011;53334;51.976;20.144;2022-12-20T05:15:09;20.57;;;9.93;;
36651;SDS011;53334;51.976;20.144;2022-12-20T05:20:16;14.32;;;8.07;;
36651;SDS011;53334;51.976;20.144;2022-12-20T05:22:52;13.40;;;8.57;;
36651;SDS011;53334;51.976;20.144;2022-12-20T05:25:44;13.85;;;8.43;;
36651;SDS011;53334;51.976;20.144;2022-12-20T05:28:42;14.93;;;8.35;;
36651;SDS011;53334;51.976;20.144;2022-12-20T05:31:16;14.82;;;8.57;;
36651;SDS011;53334;51.976;20.144;2022-12-20T05:33:49;9.88;;;7.60;;
36651;SDS011;53334;51.976;20.144;2022-12-20T05:36:23;11.48;;;7.43;;
36651;SDS011;53334;51.976;20.144;2022-12-20T05:38:59;11.73;;;7.05;;
36651;SDS011;53334;51.976;20.144;2022-12-20T05:41:36;12.25;;;7.78;;
36651;SDS011;53334;51.976;20.144;2022-12-20T05:44:11;12.93;;;6.90;;
36651;SDS011;53334;51.976;20.144;2022-12-20T05:46:49;11.13;;;7.43;;
36651;SDS011;53334;51.976;20.144;2022-12-20T05:49:28;13.07;;;7.18;;
36651;SDS011;53334;51.976;20.144;2022-12-20T05:52:04;14.40;;;7.40;;
36651;SDS011;53334;51.976;20.144;2022-12-20T05:54:41;9.32;;;6.78;;
36651;SDS011;53334;51.976;20.144;2022-12-20T05:57:18;7.10;;;6.13;;
36651;SDS011;53334;51.976;20.144;2022-12-20T05:59:51;9.23;;;6.97;;
36651;SDS011;53334;51.976;20.144;2022-12-20T06:02:27;8.73;;;6.20;;
36651;SDS011;53334;51.976;20.144;2022-12-20T06:05:06;8.23;;;6.45;;
36651;SDS011;53334;51.976;20.144;2022-12-20T06:10:14;8.77;;;5.70;;
36651;SDS011;53334;51.976;20.144;2022-12-20T06:12:55;8.80;;;6.40;;
36651;SDS011;53334;51.976;20.144;2022-12-20T06:18:04;9.68;;;6.25;;
36651;SDS011;53334;51.976;20.144;2022-12-20T06:20:38;8.77;;;5.45;;
36651;SDS011;53334;51.976;20.144;2022-12-20T06:23:13;7.40;;;5.68;;
36651;SDS011;53334;51.976;20.144;2022-12-20T06:25:56;14.38;;;6.15;;
36651;SDS011;53334;51.976;20.144;2022-12-20T06:28:33;9.13;;;5.43;;
36651;SDS011;53334;51.976;20.144;2022-12-20T06:31:12;6.38;;;5.65;;
36651;SDS011;53334;51.976;20.144;2022-12-20T06:33:50;7.38;;;5.68;;
36651;SDS011;53334;51.976;20.144;2022-12-20T06:36:25;10.85;;;6.00;;
36651;SDS011;53334;51.976;20.144;2022-12-20T06:38:59;9.55;;;5.75;;
36651;SDS011;53334;51.976;20.144;2022-12-20T06:41:43;8.18;;;5.63;;
36651;SDS011;53334;51.976;20.144;2022-12-20T06:44:16;6.93;;;5.43;;
36651;SDS011;53334;51.976;20.144;2022-12-20T06:46:50;9.23;;;5.40;;
36651;SDS011;53334;51.976;20.144;2022-12-20T06:51:57;10.73;;;5.97;;
36651;SDS011;53334;51.976;20.144;2022-12-20T06:54:48;12.32;;;5.50;;
36651;SDS011;53334;51.976;20.144;2022-12-20T06:57:25;9.20;;;5.53;;
36651;SDS011;53334;51.976;20.144;2022-12-20T06:59:59;11.32;;;5.82;;
36651;SDS011;53334;51.976;20.144;2022-12-20T07:02:33;9.48;;;5.43;;
36651;SDS011;53334;51.976;20.144;2022-12-20T07:05:06;11.60;;;5.45;;
36651;SDS011;53334;51.976;20.144;2022-12-20T07:07:40;12.80;;;5.75;;
36651;SDS011;53334;51.976;20.144;2022-12-20T07:10:16;6.95;;;5.20;;
36651;SDS011;53334;51.976;20.144;2022-12-20T07:12:52;22.55;;;5.38;;
36651;SDS011;53334;51.976;20.144;2022-12-20T07:15:25;10.02;;;5.25;;
36651;SDS011;53334;51.976;20.144;2022-12-20T07:17:58;14.38;;;5.80;;
36651;SDS011;53334;51.976;20.144;2022-12-20T07:20:31;7.20;;;5.70;;
36651;SDS011;53334;51.976;20.144;2022-12-20T07:23:05;8.95;;;5.38;;
36651;SDS011;53334;51.976;20.144;2022-12-20T07:25:38;19.58;;;6.40;;
36651;SDS011;53334;51.976;20.144;2022-12-20T07:28:12;9.52;;;5.57;;
36651;SDS011;53334;51.976;20.144;2022-12-20T07:30:46;9.75;;;5.60;;
36651;SDS011;53334;51.976;20.144;2022-12-20T07:33:19;7.90;;;5.60;;
36651;SDS011;53334;51.976;20.144;2022-12-20T07:35:58;9.77;;;5.32;;
36651;SDS011;53334;51.976;20.144;2022-12-20T07:38:32;8.68;;;6.05;;
36651;SDS011;53334;51.976;20.144;2022-12-20T07:43:41;26.20;;;18.00;;
36651;SDS011;53334;51.976;20.144;2022-12-20T07:46:15;29.65;;;22.58;;
36651;SDS011;53334;51.976;20.144;2022-12-20T07:48:49;30.75;;;22.40;;
36651;SDS011;53334;51.976;20.144;2022-12-20T07:51:23;26.88;;;21.23;;
36651;SDS011;53334;51.976;20.144;2022-12-20T07:54:00;31.35;;;19.65;;
36651;SDS011;53334;51.976;20.144;2022-12-20T07:56:36;26.50;;;16.42;;
36651;SDS011;53334;51.976;20.144;2022-12-20T07:59:15;19.75;;;14.77;;
36651;SDS011;53334;51.976;20.144;2022-12-20T08:01:51;28.40;;;14.93;;
36651;SDS011;53334;51.976;20.144;2022-12-20T08:04:32;20.55;;;14.43;;
36651;SDS011;53334;51.976;20.144;2022-12-20T08:07:06;16.73;;;12.73;;
36651;SDS011;53334;51.976;20.144;2022-12-20T08:09:40;20.50;;;13.82;;
36651;SDS011;53334;51.976;20.144;2022-12-20T08:12:15;15.43;;;11.88;;
36651;SDS011;53334;51.976;20.144;2022-12-20T08:14:51;17.52;;;12.68;;
36651;SDS011;53334;51.976;20.144;2022-12-20T08:17:26;16.50;;;12.02;;
36651;SDS011;53334;51.976;20.144;2022-12-20T08:20:00;15.40;;;11.60;;
36651;SDS011;53334;51.976;20.144;2022-12-20T08:22:33;14.60;;;11.05;;
36651;SDS011;53334;51.976;20.144;2022-12-20T08:25:06;17.58;;;11.70;;
36651;SDS011;53334;51.976;20.144;2022-12-20T08:27:42;14.13;;;11.07;;
36651;SDS011;53334;51.976;20.144;2022-12-20T08:30:17;14.07;;;11.20;;
36651;SDS011;53334;51.976;20.144;2022-12-20T08:32:50;15.90;;;11.75;;
36651;SDS011;53334;51.976;20.144;2022-12-20T08:35:23;16.50;;;11.30;;
36651;SDS011;53334;51.976;20.144;2022-12-20T08:37:56;14.75;;;11.05;;
36651;SDS011;53334;51.976;20.144;2022-12-20T08:40:29;11.85;;;9.85;;
36651;SDS011;53334;51.976;20.144;2022-12-20T08:43:03;16.30;;;11.07;;
36651;SDS011;53334;51.976;20.144;2022-12-20T08:45:42;15.75;;;9.98;;
36651;SDS011;53334;51.976;20.144;2022-12-20T08:48:15;16.95;;;10.13;;
36651;SDS011;53334;51.976;20.144;2022-12-20T08:50:52;17.77;;;9.70;;
36651;SDS011;53334;51.976;20.144;2022-12-20T08:53:27;13.07;;;9.48;;
36651;SDS011;53334;51.976;20.144;2022-12-20T08:56:05;20.42;;;9.65;;
36651;SDS011;53334;51.976;20.144;2022-12-20T08:58:39;17.90;;;9.90;;
36651;SDS011;53334;51.976;20.144;2022-12-20T09:01:17;13.52;;;9.40;;
36651;SDS011;53334;51.976;20.144;2022-12-20T09:03:52;13.73;;;9.20;;
36651;SDS011;53334;51.976;20.144;2022-12-20T09:06:25;22.63;;;10.05;;
36651;SDS011;53334;51.976;20.144;2022-12-20T09:08:58;15.98;;;9.57;;
36651;SDS011;53334;51.976;20.144;2022-12-20T09:11:32;14.95;;;9.90;;
36651;SDS011;53334;51.976;20.144;2022-12-20T09:14:05;16.08;;;10.40;;
36651;SDS011;53334;51.976;20.144;2022-12-20T09:16:40;17.10;;;10.88;;
36651;SDS011;53334;51.976;20.144;2022-12-20T09:19:13;16.15;;;10.10;;
36651;SDS011;53334;51.976;20.144;2022-12-20T09:21:47;26.77;;;11.52;;
36651;SDS011;53334;51.976;20.144;2022-12-20T09:24:20;18.20;;;10.73;;
36651;SDS011;53334;51.976;20.144;2022-12-20T09:26:53;19.08;;;10.13;;
36651;SDS011;53334;51.976;20.144;2022-12-20T09:29:27;21.13;;;10.85;;
36651;SDS011;53334;51.976;20.144;2022-12-20T09:32:07;16.05;;;11.23;;
36651;SDS011;53334;51.976;20.144;2022-12-20T09:34:43;15.52;;;10.60;;
36651;SDS011;53334;51.976;20.144;2022-12-20T09:37:17;18.70;;;11.15;;
36651;SDS011;53334;51.976;20.144;2022-12-20T09:39:54;25.88;;;11.95;;
36651;SDS011;53334;51.976;20.144;2022-12-20T09:42:27;14.23;;;11.05;;
36651;SDS011;53334;51.976;20.144;2022-12-20T09:45:03;25.65;;;12.40;;
36651;SDS011;53334;51.976;20.144;2022-12-20T09:47:41;22.52;;;11.90;;
36651;SDS011;53334;51.976;20.144;2022-12-20T09:50:15;20.42;;;11.52;;
36651;SDS011;53334;51.976;20.144;2022-12-20T09:52:58;17.67;;;12.13;;
36651;SDS011;53334;51.976;20.144;2022-12-20T09:55:49;27.05;;;13.20;;
36651;SDS011;53334;51.976;20.144;2022-12-20T09:58:32;21.10;;;12.85;;
36651;SDS011;53334;51.976;20.144;2022-12-20T10:01:14;23.00;;;15.23;;
36651;SDS011;53334;51.976;20.144;2022-12-20T10:03:57;20.95;;;13.07;;
36651;SDS011;53334;51.976;20.144;2022-12-20T10:06:38;23.73;;;13.77;;
36651;SDS011;53334;51.976;20.144;2022-12-20T10:09:22;26.30;;;14.80;;
36651;SDS011;53334;51.976;20.144;2022-12-20T10:12:14;23.10;;;14.05;;
36651;SDS011;53334;51.976;20.144;2022-12-20T10:14:58;29.45;;;14.15;;
36651;SDS011;53334;51.976;20.144;2022-12-20T10:17:40;24.35;;;14.43;;
36651;SDS011;53334;51.976;20.144;2022-12-20T10:20:26;38.53;;;26.77;;
36651;SDS011;53334;51.976;20.144;2022-12-20T10:23:10;34.60;;;23.33;;
36651;SDS011;53334;51.976;20.144;2022-12-20T10:26:04;34.13;;;22.37;;
36651;SDS011;53334;51.976;20.144;2022-12-20T10:28:42;37.22;;;23.70;;
36651;SDS011;53334;51.976;20.144;2022-12-20T10:31:22;32.35;;;21.73;;
36651;SDS011;53334;51.976;20.144;2022-12-20T10:33:56;30.40;;;21.85;;
36651;SDS011;53334;51.976;20.144;2022-12-20T10:36:32;33.80;;;20.33;;
36651;SDS011;53334;51.976;20.144;2022-12-20T10:39:07;29.17;;;19.52;;
36651;SDS011;53334;51.976;20.144;2022-12-20T10:41:48;27.58;;;19.50;;
36651;SDS011;53334;51.976;20.144;2022-12-20T10:44:23;29.85;;;19.58;;
36651;SDS011;53334;51.976;20.144;2022-12-20T10:46:59;25.40;;;19.20;;
36651;SDS011;53334;51.976;20.144;2022-12-20T10:49:33;28.10;;;18.77;;
36651;SDS011;53334;51.976;20.144;2022-12-20T10:52:11;26.05;;;18.98;;
36651;SDS011;53334;51.976;20.144;2022-12-20T10:54:46;27.08;;;17.75;;
36651;SDS011;53334;51.976;20.144;2022-12-20T10:57:20;25.58;;;17.08;;
36651;SDS011;53334;51.976;20.144;2022-12-20T10:59:56;24.83;;;17.58;;
36651;SDS011;53334;51.976;20.144;2022-12-20T11:02:31;24.92;;;17.25;;
36651;SDS011;53334;51.976;20.144;2022-12-20T11:05:18;23.95;;;17.00;;
36651;SDS011;53334;51.976;20.144;2022-12-20T11:07:57;26.13;;;15.45;;
36651;SDS011;53334;51.976;20.144;2022-12-20T11:11:08;24.42;;;16.70;;
36651;SDS011;53334;51.976;20.144;2022-12-20T11:13:44;17.48;;;14.48;;
36651;SDS011;53334;51.976;20.144;2022-12-20T11:16:22;23.67;;;16.17;;
36651;SDS011;53334;51.976;20.144;2022-12-20T11:19:14;17.60;;;13.93;;
36651;SDS011;53334;51.976;20.144;2022-12-20T11:22:12;19.98;;;13.50;;
36651;SDS011;53334;51.976;20.144;2022-12-20T11:24:56;19.65;;;13.93;;
36651;SDS011;53334;51.976;20.144;2022-12-20T11:27:40;25.42;;;13.80;;
36651;SDS011;53334;51.976;20.144;2022-12-20T11:30:21;17.05;;;13.02;;
36651;SDS011;53334;51.976;20.144;2022-12-20T11:33:01;20.25;;;14.13;;
36651;SDS011;53334;51.976;20.144;2022-12-20T11:35:48;22.40;;;13.68;;
36651;SDS011;53334;51.976;20.144;2022-12-20T11:38:29;17.25;;;12.10;;
36651;SDS011;53334;51.976;20.144;2022-12-20T11:41:17;19.58;;;13.55;;
36651;SDS011;53334;51.976;20.144;2022-12-20T11:44:00;20.48;;;12.52;;
36651;SDS011;53334;51.976;20.144;2022-12-20T11:47:00;22.05;;;12.98;;
36651;SDS011;53334;51.976;20.144;2022-12-20T11:49:49;18.38;;;12.63;;
36651;SDS011;53334;51.976;20.144;2022-12-20T11:52:34;21.58;;;13.65;;
36651;SDS011;53334;51.976;20.144;2022-12-20T11:55:15;18.55;;;11.30;;
36651;SDS011;53334;51.976;20.144;2022-12-20T11:57:55;21.25;;;11.80;;
36651;SDS011;53334;51.976;20.144;2022-12-20T12:00:52;18.52;;;11.50;;
36651;SDS011;53334;51.976;20.144;2022-12-20T12:03:29;20.75;;;11.27;;
36651;SDS011;53334;51.976;20.144;2022-12-20T12:06:06;20.00;;;11.85;;
36651;SDS011;53334;51.976;20.144;2022-12-20T12:08:43;11.80;;;9.68;;
36651;SDS011;53334;51.976;20.144;2022-12-20T12:11:21;14.55;;;10.50;;
36651;SDS011;53334;51.976;20.144;2022-12-20T12:14:24;19.98;;;10.88;;
36651;SDS011;53334;51.976;20.144;2022-12-20T12:17:06;17.20;;;11.38;;
36651;SDS011;53334;51.976;20.144;2022-12-20T12:19:44;16.77;;;11.00;;
36651;SDS011;53334;51.976;20.144;2022-12-20T12:22:22;18.40;;;10.50;;
36651;SDS011;53334;51.976;20.144;2022-12-20T12:25:01;15.88;;;10.45;;
36651;SDS011;53334;51.976;20.144;2022-12-20T12:27:40;16.88;;;10.32;;
36651;SDS011;53334;51.976;20.144;2022-12-20T12:30:16;33.00;;;10.90;;
36651;SDS011;53334;51.976;20.144;2022-12-20T12:32:51;17.45;;;10.13;;
36651;SDS011;53334;51.976;20.144;2022-12-20T12:38:52;17.25;;;10.82;;
36651;SDS011;53334;51.976;20.144;2022-12-20T12:44:57;17.88;;;11.75;;
36651;SDS011;53334;51.976;20.144;2022-12-20T12:47:35;23.05;;;12.88;;
36651;SDS011;53334;51.976;20.144;2022-12-20T12:50:15;21.00;;;12.80;;
36651;SDS011;53334;51.976;20.144;2022-12-20T12:52:54;27.17;;;14.50;;
36651;SDS011;53334;51.976;20.144;2022-12-20T12:55:40;20.30;;;14.02;;
36651;SDS011;53334;51.976;20.144;2022-12-20T13:04:26;25.05;;;18.08;;
36651;SDS011;53334;51.976;20.144;2022-12-20T13:07:02;28.90;;;19.33;;
36651;SDS011;53334;51.976;20.144;2022-12-20T13:09:57;29.27;;;18.80;;
36651;SDS011;53334;51.976;20.144;2022-12-20T13:18:21;24.35;;;16.63;;
36651;SDS011;53334;51.976;20.144;2022-12-20T13:27:24;26.15;;;15.85;;
36651;SDS011;53334;51.976;20.144;2022-12-20T13:36:12;21.27;;;14.20;;
36651;SDS011;53334;51.976;20.144;2022-12-20T13:39:29;25.63;;;14.88;;
36651;SDS011;53334;51.976;20.144;2022-12-20T13:42:12;26.77;;;13.98;;
36651;SDS011;53334;51.976;20.144;2022-12-20T13:44:54;23.42;;;14.90;;
36651;SDS011;53334;51.976;20.144;2022-12-20T13:52:58;20.02;;;13.60;;
36651;SDS011;53334;51.976;20.144;2022-12-20T13:55:33;23.27;;;14.38;;
36651;SDS011;53334;51.976;20.144;2022-12-20T13:58:14;25.23;;;14.02;;
36651;SDS011;53334;51.976;20.144;2022-12-20T14:00:50;28.35;;;14.48;;
36651;SDS011;53334;51.976;20.144;2022-12-20T14:03:26;20.00;;;14.18;;
36651;SDS011;53334;51.976;20.144;2022-12-20T14:06:01;16.85;;;12.88;;
36651;SDS011;53334;51.976;20.144;2022-12-20T14:08:39;21.25;;;13.32;;
36651;SDS011;53334;51.976;20.144;2022-12-20T14:11:16;17.70;;;13.02;;
36651;SDS011;53334;51.976;20.144;2022-12-20T14:13:51;16.48;;;11.88;;
36651;SDS011;53334;51.976;20.144;2022-12-20T14:16:26;21.13;;;12.00;;
36651;SDS011;53334;51.976;20.144;2022-12-20T14:19:01;18.23;;;12.75;;
36651;SDS011;53334;51.976;20.144;2022-12-20T14:21:35;18.15;;;11.60;;
36651;SDS011;53334;51.976;20.144;2022-12-20T14:24:13;18.83;;;11.82;;
36651;SDS011;53334;51.976;20.144;2022-12-20T14:26:49;18.60;;;11.85;;
36651;SDS011;53334;51.976;20.144;2022-12-20T14:29:26;19.83;;;11.13;;
36651;SDS011;53334;51.976;20.144;2022-12-20T14:32:03;18.33;;;11.55;;
36651;SDS011;53334;51.976;20.144;2022-12-20T14:37:24;15.75;;;10.45;;
36651;SDS011;53334;51.976;20.144;2022-12-20T14:40:03;19.38;;;11.48;;
36651;SDS011;53334;51.976;20.144;2022-12-20T14:42:49;14.98;;;9.85;;
36651;SDS011;53334;51.976;20.144;2022-12-20T14:45:24;18.58;;;10.70;;
36651;SDS011;53334;51.976;20.144;2022-12-20T14:48:00;13.98;;;9.82;;
36651;SDS011;53334;51.976;20.144;2022-12-20T14:50:37;20.85;;;10.50;;
36651;SDS011;53334;51.976;20.144;2022-12-20T14:53:14;17.77;;;9.80;;
36651;SDS011;53334;51.976;20.144;2022-12-20T14:55:53;19.38;;;10.90;;
36651;SDS011;53334;51.976;20.144;2022-12-20T14:58:28;22.65;;;10.20;;
36651;SDS011;53334;51.976;20.144;2022-12-20T15:01:18;17.63;;;10.48;;
36651;SDS011;53334;51.976;20.144;2022-12-20T15:03:53;18.83;;;10.40;;
36651;SDS011;53334;51.976;20.144;2022-12-20T15:06:32;18.83;;;10.30;;
36651;SDS011;53334;51.976;20.144;2022-12-20T15:09:16;21.58;;;10.65;;
36651;SDS011;53334;51.976;20.144;2022-12-20T15:11:51;18.45;;;9.85;;
36651;SDS011;53334;51.976;20.144;2022-12-20T15:14:35;20.08;;;10.02;;
36651;SDS011;53334;51.976;20.144;2022-12-20T15:17:11;18.38;;;9.60;;
36651;SDS011;53334;51.976;20.144;2022-12-20T15:19:46;18.42;;;9.30;;
36651;SDS011;53334;51.976;20.144;2022-12-20T15:22:19;14.73;;;10.20;;
36651;SDS011;53334;51.976;20.144;2022-12-20T15:24:53;18.60;;;9.50;;
36651;SDS011;53334;51.976;20.144;2022-12-20T15:27:27;23.83;;;8.68;;
36651;SDS011;53334;51.976;20.144;2022-12-20T15:30:05;17.15;;;9.00;;
36651;SDS011;53334;51.976;20.144;2022-12-20T15:32:44;16.13;;;9.25;;
36651;SDS011;53334;51.976;20.144;2022-12-20T15:35:26;19.48;;;7.60;;
36651;SDS011;53334;51.976;20.144;2022-12-20T15:38:00;14.38;;;8.77;;
36651;SDS011;53334;51.976;20.144;2022-12-20T15:40:33;16.48;;;8.25;;
36651;SDS011;53334;51.976;20.144;2022-12-20T15:43:10;13.10;;;8.30;;
36651;SDS011;53334;51.976;20.144;2022-12-20T15:45:45;13.50;;;8.45;;
36651;SDS011;53334;51.976;20.144;2022-12-20T15:48:21;12.75;;;9.25;;
36651;SDS011;53334;51.976;20.144;2022-12-20T15:50:55;11.00;;;7.82;;
36651;SDS011;53334;51.976;20.144;2022-12-20T15:53:31;16.17;;;8.02;;
36651;SDS011;53334;51.976;20.144;2022-12-20T15:56:07;13.93;;;8.48;;
36651;SDS011;53334;51.976;20.144;2022-12-20T15:58:49;18.60;;;8.38;;
36651;SDS011;53334;51.976;20.144;2022-12-20T16:01:24;20.83;;;8.98;;
36651;SDS011;53334;51.976;20.144;2022-12-20T16:04:12;15.13;;;7.93;;
36651;SDS011;53334;51.976;20.144;2022-12-20T16:06:48;16.20;;;8.30;;
36651;SDS011;53334;51.976;20.144;2022-12-20T16:09:24;17.42;;;8.07;;
36651;SDS011;53334;51.976;20.144;2022-12-20T16:11:57;15.65;;;8.43;;
36651;SDS011;53334;51.976;20.144;2022-12-20T16:14:32;20.23;;;8.27;;
36651;SDS011;53334;51.976;20.144;2022-12-20T16:17:07;13.18;;;9.05;;
36651;SDS011;53334;51.976;20.144;2022-12-20T16:19:44;17.38;;;9.38;;
36651;SDS011;53334;51.976;20.144;2022-12-20T16:22:18;11.98;;;9.23;;